Time;durP1;ratioP1;P1;durP2;ratioP2;P2;SDS_P1;SDS_P2;PMS_P1;PMS_P2;Temp;Humidity;BMP_temperature;BMP_pressure;BME280_temperature;BME280_humidity;BME280_pressure;Samples;Min_cycle;Max_cycle;Signal;HPM_P1;HPM_P2
2022/06/11 00:01:07;;;;;;;14.23;7.40;;;;;;;;;;5053028;28;20021;-74
2022/06/11 00:03:33;;;;;;;13.75;7.10;;;;;;;;;;5053009;28;20017;-76
2022/06/11 00:05:59;;;;;;;15.00;7.68;;;;;;;;;;5053024;28;20028;-75
2022/06/11 00:08:25;;;;;;;18.35;8.00;;;;;;;;;;5052570;28;20044;-75
2022/06/11 00:10:52;;;;;;;15.00;8.40;;;;;;;;;;5052767;28;20057;-75
2022/06/11 00:13:22;;;;;;;17.13;8.50;;;;;;;;;;5052611;28;20025;-74
2022/06/11 00:15:48;;;;;;;18.10;8.65;;;;;;;;;;5052209;28;20124;-76
2022/06/11 00:18:14;;;;;;;17.23;8.27;;;;;;;;;;5053238;28;20047;-76
2022/06/11 00:20:40;;;;;;;15.70;7.90;;;;;;;;;;5052877;28;20507;-75
2022/06/11 00:23:06;;;;;;;17.00;8.00;;;;;;;;;;5053039;28;20099;-75
2022/06/11 00:25:34;;;;;;;21.60;8.23;;;;;;;;;;5055889;28;20134;-75
2022/06/11 00:28:00;;;;;;;15.25;8.15;;;;;;;;;;5060019;28;20017;-76
2022/06/11 00:30:26;;;;;;;14.48;7.53;;;;;;;;;;5058974;28;20036;-76
2022/06/11 00:32:52;;;;;;;17.63;8.50;;;;;;;;;;5055213;28;20020;-74
2022/06/11 00:35:18;;;;;;;14.10;7.30;;;;;;;;;;5052149;28;20017;-76
2022/06/11 00:37:45;;;;;;;17.58;7.85;;;;;;;;;;5052786;28;20021;-76
2022/06/11 00:40:14;;;;;;;18.38;8.52;;;;;;;;;;5053541;28;20028;-75
2022/06/11 00:42:39;;;;;;;19.48;8.35;;;;;;;;;;5062631;28;20025;-75
2022/06/11 00:45:12;;;;;;;14.40;7.88;;;;;;;;;;5066745;28;20039;-76
2022/06/11 00:47:38;;;;;;;13.30;7.78;;;;;;;;;;5064606;28;20024;-76
2022/06/11 00:50:16;;;;;;;15.48;7.47;;;;;;;;;;5064039;28;20032;-74
2022/06/11 00:52:44;;;;;;;14.77;7.68;;;;;;;;;;5060333;28;20553;-74
2022/06/11 00:55:14;;;;;;;14.43;7.05;;;;;;;;;;5065064;28;20025;-76
2022/06/11 00:57:47;;;;;;;15.55;6.80;;;;;;;;;;5063918;28;20028;-74
2022/06/11 01:00:33;;;;;;;16.00;6.78;;;;;;;;;;5067293;28;20025;-73
2022/06/11 01:02:59;;;;;;;15.93;7.05;;;;;;;;;;5062608;28;20056;-75
2022/06/11 01:05:30;;;;;;;16.13;6.80;;;;;;;;;;5051875;28;20020;-75
2022/06/11 01:08:02;;;;;;;13.63;6.40;;;;;;;;;;5052639;28;20370;-75
2022/06/11 01:10:54;;;;;;;13.68;5.95;;;;;;;;;;5051969;28;20033;-76
2022/06/11 01:13:30;;;;;;;16.27;6.60;;;;;;;;;;5046103;28;20122;-76
2022/06/11 01:15:58;;;;;;;15.70;6.32;;;;;;;;;;5051553;28;20437;-75
2022/06/11 01:18:28;;;;;;;11.77;5.85;;;;;;;;;;5050111;28;20528;-75
2022/06/11 01:21:05;;;;;;;16.35;6.95;;;;;;;;;;5051854;28;20021;-75
2022/06/11 01:23:41;;;;;;;12.98;6.10;;;;;;;;;;5053190;28;20067;-76
2022/06/11 01:26:32;;;;;;;15.38;6.15;;;;;;;;;;5054738;28;20033;-75
2022/06/11 01:29:11;;;;;;;12.30;6.28;;;;;;;;;;5057410;28;20023;-75
2022/06/11 01:31:43;;;;;;;15.65;6.50;;;;;;;;;;5056194;28;20021;-75
2022/06/11 01:34:17;;;;;;;17.83;7.05;;;;;;;;;;5057966;28;20021;-74
2022/06/11 01:36:45;;;;;;;20.33;7.38;;;;;;;;;;5054274;28;20121;-74
2022/06/11 01:39:26;;;;;;;16.88;7.00;;;;;;;;;;5057305;28;20032;-75
2022/06/11 01:41:54;;;;;;;20.88;6.60;;;;;;;;;;5052341;28;20025;-74
2022/06/11 01:44:22;;;;;;;12.73;5.60;;;;;;;;;;5051777;28;20024;-74
2022/06/11 01:46:51;;;;;;;20.88;6.22;;;;;;;;;;5051406;28;20052;-76
2022/06/11 01:49:26;;;;;;;20.30;6.53;;;;;;;;;;5052492;28;20028;-76
2022/06/11 01:51:51;;;;;;;16.13;5.90;;;;;;;;;;5052607;28;20025;-76
2022/06/11 01:54:31;;;;;;;10.80;5.47;;;;;;;;;;5052570;28;20021;-75
2022/06/11 01:57:35;;;;;;;15.55;5.45;;;;;;;;;;5053676;28;20032;-75
2022/06/11 02:00:04;;;;;;;11.48;4.82;;;;;;;;;;4972173;28;20027;-75
2022/06/11 02:02:41;;;;;;;13.13;5.45;;;;;;;;;;4971096;28;20590;-74
2022/06/11 02:05:27;;;;;;;17.92;6.32;;;;;;;;;;5016663;28;20176;-75
2022/06/11 02:08:19;;;;;;;12.82;5.35;;;;;;;;;;5051250;28;20021;-76
2022/06/11 02:10:57;;;;;;;14.38;5.05;;;;;;;;;;5048786;28;20033;-75
2022/06/11 02:13:46;;;;;;;14.60;5.25;;;;;;;;;;5054016;28;20573;-76
2022/06/11 02:16:16;;;;;;;10.07;5.03;;;;;;;;;;5056034;28;20021;-75
2022/06/11 02:18:42;;;;;;;13.25;5.55;;;;;;;;;;5054862;28;20029;-75
2022/06/11 02:21:13;;;;;;;15.45;5.47;;;;;;;;;;5054774;28;20017;-75
2022/06/11 02:23:43;;;;;;;15.18;5.10;;;;;;;;;;5054906;28;20021;-76
2022/06/11 02:26:14;;;;;;;12.10;4.80;;;;;;;;;;5053382;28;20033;-76
2022/06/11 02:28:42;;;;;;;15.63;6.07;;;;;;;;;;5054104;28;20100;-77
2022/06/11 02:31:11;;;;;;;14.77;5.28;;;;;;;;;;5053182;28;20021;-76
2022/06/11 02:33:37;;;;;;;12.98;4.97;;;;;;;;;;5054718;28;20016;-76
2022/06/11 02:36:14;;;;;;;13.90;4.75;;;;;;;;;;5055212;28;20382;-75
2022/06/11 02:38:40;;;;;;;12.73;5.07;;;;;;;;;;5058447;28;20021;-75
2022/06/11 02:41:16;;;;;;;12.15;5.22;;;;;;;;;;5054460;28;20112;-75
2022/06/11 02:43:42;;;;;;;13.75;5.50;;;;;;;;;;5054537;28;20021;-76
2022/06/11 02:48:55;;;;;;;12.40;5.20;;;;;;;;;;5054560;28;20064;-76
2022/06/11 02:51:22;;;;;;;10.48;5.07;;;;;;;;;;5052499;28;20065;-76
2022/06/11 02:53:48;;;;;;;13.38;5.72;;;;;;;;;;5053177;28;20021;-75
2022/06/11 02:56:14;;;;;;;18.35;7.22;;;;;;;;;;5055148;28;20096;-75
2022/06/11 02:58:41;;;;;;;18.88;5.97;;;;;;;;;;5064157;28;20025;-76
2022/06/11 03:01:07;;;;;;;15.80;4.40;;;;;;;;;;5066073;28;20024;-75
2022/06/11 03:03:33;;;;;;;11.63;5.45;;;;;;;;;;5065827;28;20024;-74
2022/06/11 03:05:59;;;;;;;19.15;5.40;;;;;;;;;;5065286;28;20021;-76
2022/06/11 03:08:26;;;;;;;16.33;5.78;;;;;;;;;;5058297;28;20025;-75
2022/06/11 03:10:54;;;;;;;16.55;5.20;;;;;;;;;;5053949;28;20032;-75
2022/06/11 03:13:24;;;;;;;15.65;5.50;;;;;;;;;;5053975;28;20013;-75
2022/06/11 03:15:50;;;;;;;13.02;5.75;;;;;;;;;;5053219;28;20429;-74
2022/06/11 03:18:16;;;;;;;12.73;5.32;;;;;;;;;;5053608;28;20354;-75
2022/06/11 03:20:42;;;;;;;12.63;5.60;;;;;;;;;;5054640;28;20036;-75
2022/06/11 03:23:09;;;;;;;17.05;5.43;;;;;;;;;;5054456;28;20393;-75
2022/06/11 03:25:35;;;;;;;13.25;5.75;;;;;;;;;;5054178;28;20139;-75
2022/06/11 03:28:09;;;;;;;12.40;5.47;;;;;;;;;;5054299;28;20036;-75
2022/06/11 03:30:35;;;;;;;19.27;6.37;;;;;;;;;;5054519;28;20391;-75
2022/06/11 03:33:01;;;;;;;11.95;5.60;;;;;;;;;;5054298;28;20071;-75
2022/06/11 03:35:27;;;;;;;13.68;5.25;;;;;;;;;;5054236;28;20021;-75
2022/06/11 03:37:53;;;;;;;18.00;5.88;;;;;;;;;;5055328;28;20609;-77
2022/06/11 03:40:19;;;;;;;13.60;4.93;;;;;;;;;;5054392;28;20056;-77
2022/06/11 03:42:45;;;;;;;14.65;5.38;;;;;;;;;;5055148;28;20390;-75
2022/06/11 03:45:11;;;;;;;12.75;5.38;;;;;;;;;;5054180;28;20029;-76
2022/06/11 03:47:38;;;;;;;14.30;5.30;;;;;;;;;;5054397;28;20025;-76
2022/06/11 03:50:05;;;;;;;13.73;5.75;;;;;;;;;;5054402;28;20104;-76
2022/06/11 03:52:31;;;;;;;12.63;5.25;;;;;;;;;;5054741;28;20432;-74
2022/06/11 03:54:57;;;;;;;15.77;5.53;;;;;;;;;;5054082;28;20021;-75
2022/06/11 03:57:24;;;;;;;15.43;5.32;;;;;;;;;;5054265;28;20031;-75
2022/06/11 03:59:50;;;;;;;19.08;6.13;;;;;;;;;;5053886;28;20021;-76
2022/06/11 04:02:16;;;;;;;14.40;5.65;;;;;;;;;;5054480;28;20033;-75
2022/06/11 04:04:42;;;;;;;13.88;5.28;;;;;;;;;;5053936;28;20040;-75
2022/06/11 04:07:08;;;;;;;11.10;5.18;;;;;;;;;;5053624;28;20029;-76
2022/06/11 04:09:36;;;;;;;14.02;5.28;;;;;;;;;;5055174;28;20227;-74
2022/06/11 04:12:03;;;;;;;20.80;5.70;;;;;;;;;;5054018;28;20025;-76
2022/06/11 04:14:29;;;;;;;15.85;5.47;;;;;;;;;;5054081;28;20028;-75
2022/06/11 04:16:58;;;;;;;12.98;5.40;;;;;;;;;;5053337;28;20468;-75
2022/06/11 04:19:25;;;;;;;15.15;5.38;;;;;;;;;;5053750;28;20422;-76
2022/06/11 04:21:52;;;;;;;15.30;5.53;;;;;;;;;;5052370;28;20075;-74
2022/06/11 04:24:19;;;;;;;19.35;5.72;;;;;;;;;;5053908;28;20033;-74
2022/06/11 04:26:46;;;;;;;12.10;4.90;;;;;;;;;;5058739;28;20029;-75
2022/06/11 04:29:14;;;;;;;15.90;6.38;;;;;;;;;;5057036;28;20393;-76
2022/06/11 04:31:40;;;;;;;12.23;5.07;;;;;;;;;;5054671;28;20096;-76
2022/06/11 04:34:06;;;;;;;13.38;5.43;;;;;;;;;;5054004;28;20102;-76
2022/06/11 04:36:33;;;;;;;15.65;5.72;;;;;;;;;;5055951;28;20029;-75
2022/06/11 04:38:59;;;;;;;14.07;5.25;;;;;;;;;;5055915;28;20028;-75
2022/06/11 04:41:26;;;;;;;14.77;5.32;;;;;;;;;;5055396;28;20039;-75
2022/06/11 04:43:52;;;;;;;21.63;5.90;;;;;;;;;;5052121;28;20098;-73
2022/06/11 04:46:19;;;;;;;21.52;5.88;;;;;;;;;;5053113;28;20226;-75
2022/06/11 04:48:45;;;;;;;18.77;6.45;;;;;;;;;;5051717;28;20031;-74
2022/06/11 04:51:13;;;;;;;16.67;5.72;;;;;;;;;;5053120;28;20025;-74
2022/06/11 04:53:39;;;;;;;16.08;5.53;;;;;;;;;;5053985;28;20017;-74
2022/06/11 04:56:06;;;;;;;19.70;6.65;;;;;;;;;;5056136;28;20096;-73
2022/06/11 04:58:32;;;;;;;12.73;5.57;;;;;;;;;;5054623;28;20529;-74
2022/06/11 05:00:58;;;;;;;13.38;5.97;;;;;;;;;;5053751;28;20017;-73
2022/06/11 05:03:24;;;;;;;19.00;5.78;;;;;;;;;;5053974;28;20098;-75
2022/06/11 05:05:50;;;;;;;22.05;6.43;;;;;;;;;;5052700;28;20058;-75
2022/06/11 05:08:16;;;;;;;22.83;6.28;;;;;;;;;;5052611;28;20111;-74
2022/06/11 05:10:42;;;;;;;15.02;6.20;;;;;;;;;;5052639;28;20029;-73
2022/06/11 05:13:10;;;;;;;15.80;6.10;;;;;;;;;;5053085;28;20374;-74
2022/06/11 05:15:39;;;;;;;14.63;6.03;;;;;;;;;;5052837;28;20036;-74
2022/06/11 05:18:05;;;;;;;14.10;5.88;;;;;;;;;;5060431;28;20033;-75
2022/06/11 05:20:31;;;;;;;13.40;6.20;;;;;;;;;;5063385;28;20082;-75
2022/06/11 05:22:57;;;;;;;16.88;5.88;;;;;;;;;;5063556;28;20033;-76
2022/06/11 05:25:23;;;;;;;17.08;6.05;;;;;;;;;;5059157;28;20040;-74
2022/06/11 05:27:49;;;;;;;22.98;7.43;;;;;;;;;;5063661;28;20421;-76
2022/06/11 05:30:17;;;;;;;14.13;5.88;;;;;;;;;;5062427;28;20021;-76
2022/06/11 05:32:43;;;;;;;15.43;6.80;;;;;;;;;;5061788;28;20021;-75
2022/06/11 05:35:12;;;;;;;17.13;5.95;;;;;;;;;;5063849;28;20033;-76
2022/06/11 05:37:39;;;;;;;20.67;7.53;;;;;;;;;;5062590;28;20108;-75
2022/06/11 05:40:06;;;;;;;16.88;6.88;;;;;;;;;;5058791;28;20033;-75
2022/06/11 05:42:32;;;;;;;17.85;6.93;;;;;;;;;;5053078;28;20021;-75
2022/06/11 05:44:58;;;;;;;18.00;6.72;;;;;;;;;;5052814;28;20171;-76
2022/06/11 05:47:25;;;;;;;20.02;7.50;;;;;;;;;;5053234;28;20053;-76
2022/06/11 05:49:53;;;;;;;23.13;7.50;;;;;;;;;;5054533;28;20462;-75
2022/06/11 05:52:22;;;;;;;24.85;9.02;;;;;;;;;;5056966;28;20104;-76
2022/06/11 05:54:48;;;;;;;19.05;7.45;;;;;;;;;;5056589;28;20025;-75
2022/06/11 05:57:16;;;;;;;18.90;8.05;;;;;;;;;;5055946;28;20021;-75
2022/06/11 05:59:44;;;;;;;23.63;9.65;;;;;;;;;;5056557;28;20047;-75
2022/06/11 06:02:12;;;;;;;23.08;9.88;;;;;;;;;;5056297;28;20029;-74
2022/06/11 06:04:39;;;;;;;20.80;9.32;;;;;;;;;;5056572;28;20021;-75
2022/06/11 06:07:05;;;;;;;26.30;9.05;;;;;;;;;;5056190;28;20092;-79
2022/06/11 06:09:31;;;;;;;24.50;9.00;;;;;;;;;;5056484;28;20112;-74
2022/06/11 06:11:58;;;;;;;15.80;8.98;;;;;;;;;;5056053;28;20029;-75
2022/06/11 06:14:23;;;;;;;21.92;9.45;;;;;;;;;;5056472;28;20025;-75
2022/06/11 06:16:49;;;;;;;17.90;9.13;;;;;;;;;;5056190;28;20043;-76
2022/06/11 06:19:16;;;;;;;21.33;9.98;;;;;;;;;;5056836;28;20079;-75
2022/06/11 06:21:41;;;;;;;28.48;10.40;;;;;;;;;;5057305;28;20039;-77
2022/06/11 06:24:08;;;;;;;20.55;8.77;;;;;;;;;;5058475;28;20096;-76
2022/06/11 06:26:34;;;;;;;24.58;9.32;;;;;;;;;;5057617;28;20036;-75
2022/06/11 06:29:00;;;;;;;18.98;9.15;;;;;;;;;;5059298;28;20028;-74
2022/06/11 06:31:26;;;;;;;17.73;7.80;;;;;;;;;;5058523;28;20158;-75
2022/06/11 06:33:53;;;;;;;17.60;7.38;;;;;;;;;;5059410;28;20029;-75
2022/06/11 06:36:19;;;;;;;18.05;6.80;;;;;;;;;;5057270;28;20029;-77
2022/06/11 06:38:46;;;;;;;14.00;6.00;;;;;;;;;;5057838;28;20049;-74
2022/06/11 06:41:13;;;;;;;18.60;6.03;;;;;;;;;;5056957;28;20078;-77
2022/06/11 06:43:39;;;;;;;24.92;5.75;;;;;;;;;;5057474;28;20025;-76
2022/06/11 06:46:06;;;;;;;19.10;5.43;;;;;;;;;;5056227;28;20478;-76
2022/06/11 06:48:32;;;;;;;20.77;5.18;;;;;;;;;;5056411;28;20025;-75
2022/06/11 06:50:58;;;;;;;14.95;5.32;;;;;;;;;;5054922;28;20025;-76
2022/06/11 06:53:26;;;;;;;17.05;5.57;;;;;;;;;;5060662;28;20707;-78
2022/06/11 06:55:52;;;;;;;16.65;5.05;;;;;;;;;;5062902;28;20013;-76
2022/06/11 06:58:18;;;;;;;20.65;5.25;;;;;;;;;;5062434;28;20025;-76
2022/06/11 07:00:44;;;;;;;14.52;4.50;;;;;;;;;;5054416;28;20025;-77
2022/06/11 07:03:12;;;;;;;14.90;4.63;;;;;;;;;;5056522;28;20017;-76
2022/06/11 07:05:38;;;;;;;17.63;5.00;;;;;;;;;;5056318;28;20098;-77
2022/06/11 07:08:06;;;;;;;16.98;4.50;;;;;;;;;;5056457;28;20532;-76
2022/06/11 07:10:32;;;;;;;17.75;5.90;;;;;;;;;;5053701;28;20508;-77
2022/06/11 07:12:58;;;;;;;22.52;4.53;;;;;;;;;;5055028;28;20028;-75
2022/06/11 07:15:25;;;;;;;26.50;5.15;;;;;;;;;;5055128;28;20025;-76
2022/06/11 07:17:53;;;;;;;16.80;5.10;;;;;;;;;;5057769;28;20115;-79
2022/06/11 07:20:24;;;;;;;16.77;4.93;;;;;;;;;;5054623;28;20123;-77
2022/06/11 07:22:53;;;;;;;10.65;3.75;;;;;;;;;;5056108;28;20412;-76
2022/06/11 07:25:19;;;;;;;16.95;4.65;;;;;;;;;;5057498;28;20025;-76
2022/06/11 07:27:49;;;;;;;17.33;4.88;;;;;;;;;;5056969;28;20044;-77
2022/06/11 07:30:16;;;;;;;13.05;4.47;;;;;;;;;;5054791;28;20116;-77
2022/06/11 07:32:44;;;;;;;20.65;4.88;;;;;;;;;;5054543;28;20032;-77
2022/06/11 07:35:12;;;;;;;17.10;4.75;;;;;;;;;;5054377;28;20075;-77
2022/06/11 07:37:38;;;;;;;13.52;3.80;;;;;;;;;;5054381;28;20021;-78
2022/06/11 07:40:05;;;;;;;16.55;4.30;;;;;;;;;;5055420;28;20017;-75
2022/06/11 07:42:32;;;;;;;13.48;4.18;;;;;;;;;;5055760;28;20174;-76
2022/06/11 07:44:58;;;;;;;18.45;5.70;;;;;;;;;;5054234;28;20027;-76
2022/06/11 07:50:11;;;;;;;15.10;4.60;;;;;;;;;;5054754;28;20346;-76
2022/06/11 07:52:37;;;;;;;21.55;6.25;;;;;;;;;;5054867;28;20071;-77
2022/06/11 07:55:03;;;;;;;15.70;5.43;;;;;;;;;;5055615;28;20033;-76
2022/06/11 07:57:29;;;;;;;15.57;5.47;;;;;;;;;;5054654;28;20029;-76
2022/06/11 07:59:55;;;;;;;16.38;4.93;;;;;;;;;;5062382;28;20032;-76
2022/06/11 08:02:22;;;;;;;15.85;5.13;;;;;;;;;;5060410;28;20029;-76
2022/06/11 08:04:48;;;;;;;19.40;4.97;;;;;;;;;;5062341;28;20029;-77
2022/06/11 08:07:14;;;;;;;19.67;5.95;;;;;;;;;;5063005;28;20025;-76
2022/06/11 08:09:40;;;;;;;12.48;5.90;;;;;;;;;;5057436;28;20500;-76
2022/06/11 08:12:06;;;;;;;14.95;6.00;;;;;;;;;;5054180;28;20021;-74
2022/06/11 08:14:32;;;;;;;16.42;6.57;;;;;;;;;;5052286;28;20025;-76
2022/06/11 08:16:58;;;;;;;19.00;7.72;;;;;;;;;;5054652;28;20557;-77
2022/06/11 08:19:24;;;;;;;14.25;6.78;;;;;;;;;;5055272;28;20048;-76
2022/06/11 08:21:50;;;;;;;19.33;7.32;;;;;;;;;;5055750;28;20017;-78
2022/06/11 08:24:16;;;;;;;17.65;6.65;;;;;;;;;;5055438;28;20032;-76
2022/06/11 08:26:42;;;;;;;15.38;6.95;;;;;;;;;;5055589;28;20029;-78
2022/06/11 08:29:08;;;;;;;17.23;6.25;;;;;;;;;;5054751;28;20029;-77
2022/06/11 08:31:34;;;;;;;18.00;6.38;;;;;;;;;;5055808;28;20021;-76
2022/06/11 08:34:00;;;;;;;18.13;5.95;;;;;;;;;;5056425;28;20021;-76
2022/06/11 08:36:26;;;;;;;21.92;6.00;;;;;;;;;;5054478;28;20074;-77
2022/06/11 08:38:52;;;;;;;14.30;6.43;;;;;;;;;;5054844;28;20033;-74
2022/06/11 08:41:20;;;;;;;15.93;6.20;;;;;;;;;;5057586;28;20021;-77
2022/06/11 08:43:54;;;;;;;17.05;7.35;;;;;;;;;;5056520;28;20013;-75
2022/06/11 08:46:21;;;;;;;30.88;11.63;;;;;;;;;;5054360;28;20021;-75
2022/06/11 08:48:47;;;;;;;13.98;6.30;;;;;;;;;;5054830;28;20067;-76
2022/06/11 08:51:19;;;;;;;13.57;6.97;;;;;;;;;;5054191;28;20490;-75
2022/06/11 08:53:47;;;;;;;14.45;6.15;;;;;;;;;;5054509;28;20425;-76
2022/06/11 08:56:20;;;;;;;13.43;6.72;;;;;;;;;;5057685;28;20025;-76
2022/06/11 08:59:02;;;;;;;13.68;6.20;;;;;;;;;;5056238;28;20112;-76
2022/06/11 09:01:32;;;;;;;14.30;5.85;;;;;;;;;;5056383;28;20101;-76
2022/06/11 09:04:08;;;;;;;13.30;5.93;;;;;;;;;;5054612;28;20021;-77
2022/06/11 09:06:42;;;;;;;13.25;5.53;;;;;;;;;;5055825;28;20028;-75
2022/06/11 09:09:35;;;;;;;17.30;6.25;;;;;;;;;;5054212;28;20053;-76
2022/06/11 09:12:24;;;;;;;11.13;5.47;;;;;;;;;;5054192;28;20539;-76
2022/06/11 09:14:53;;;;;;;17.13;4.93;;;;;;;;;;5045996;28;20033;-75
2022/06/11 09:17:57;;;;;;;10.45;4.60;;;;;;;;;;5062697;28;20032;-75
2022/06/11 09:20:37;;;;;;;12.45;4.70;;;;;;;;;;5006443;28;20034;-76
2022/06/11 09:23:13;;;;;;;8.43;3.05;;;;;;;;;;5003724;28;20039;-77
2022/06/11 09:25:51;;;;;;;10.18;3.25;;;;;;;;;;5043488;28;20033;-75
2022/06/11 09:28:37;;;;;;;9.48;2.85;;;;;;;;;;5068095;28;20025;-76
2022/06/11 09:31:06;;;;;;;9.15;2.45;;;;;;;;;;5068199;28;20048;-77
2022/06/11 09:33:40;;;;;;;11.35;2.22;;;;;;;;;;5069701;28;20116;-76
2022/06/11 09:36:06;;;;;;;;;;;;;;;;;;5071353;28;20078;-75
2022/06/11 09:38:51;;;;;;;9.48;2.53;;;;;;;;;;5062777;28;19995;-75
2022/06/11 09:41:17;;;;;;;;;;;;;;;;;;5058493;28;20040;-76
2022/06/11 09:43:52;;;;;;;8.55;2.30;;;;;;;;;;5058689;28;19905;-74
2022/06/11 09:46:18;;;;;;;13.82;2.45;;;;;;;;;;5062702;28;20135;-75
2022/06/11 09:49:03;;;;;;;8.75;2.55;;;;;;;;;;5064229;28;20044;-76
2022/06/11 09:51:41;;;;;;;10.77;3.00;;;;;;;;;;5058970;28;20083;-76
2022/06/11 09:54:25;;;;;;;9.60;2.55;;;;;;;;;;5057944;28;20036;-76
2022/06/11 09:57:18;;;;;;;7.18;2.25;;;;;;;;;;5055954;28;20036;-74
2022/06/11 09:59:46;;;;;;;12.32;2.65;;;;;;;;;;5055306;28;20479;-76
2022/06/11 10:03:01;;;;;;;18.15;3.00;;;;;;;;;;5057002;28;20437;-75
2022/06/11 10:05:22;;;;;;;14.02;2.65;;;;;;;;;;5053605;28;20036;-76
2022/06/11 10:07:51;;;;;;;10.32;2.15;;;;;;;;;;5057282;28;20381;-76
2022/06/11 10:10:23;;;;;;;10.07;2.40;;;;;;;;;;5057108;28;20021;-76
2022/06/11 10:12:51;;;;;;;8.95;3.03;;;;;;;;;;5057294;28;20025;-77
2022/06/11 10:15:23;;;;;;;7.30;2.72;;;;;;;;;;5058287;28;20053;-77
2022/06/11 10:17:58;;;;;;;8.07;2.45;;;;;;;;;;5056966;28;20032;-77
2022/06/11 10:20:32;;;;;;;9.20;2.78;;;;;;;;;;5057159;28;20096;-77
2022/06/11 10:23:11;;;;;;;8.80;2.38;;;;;;;;;;5058589;28;20035;-77
2022/06/11 10:25:56;;;;;;;11.77;2.53;;;;;;;;;;5061848;28;20512;-77
2022/06/11 10:28:25;;;;;;;8.10;2.67;;;;;;;;;;5063263;28;20116;-75
2022/06/11 10:31:07;;;;;;;13.52;2.65;;;;;;;;;;5064578;28;20028;-75
2022/06/11 10:33:45;;;;;;;10.40;2.90;;;;;;;;;;5062478;28;20112;-78
2022/06/11 10:36:14;;;;;;;10.60;2.97;;;;;;;;;;5059129;28;20028;-77
2022/06/11 10:38:43;;;;;;;11.30;2.88;;;;;;;;;;5059801;28;20024;-78
2022/06/11 10:41:12;;;;;;;12.57;2.60;;;;;;;;;;5057087;28;20033;-77
2022/06/11 10:43:51;;;;;;;15.63;3.25;;;;;;;;;;5055222;28;20020;-75
2022/06/11 10:46:18;;;;;;;12.02;2.80;;;;;;;;;;5053823;28;20506;-75
2022/06/11 10:48:44;;;;;;;10.50;2.67;;;;;;;;;;5054767;28;20033;-76
2022/06/11 10:51:16;;;;;;;15.65;2.90;;;;;;;;;;5055853;28;20029;-75
2022/06/11 10:53:49;;;;;;;11.77;3.00;;;;;;;;;;5059298;28;20028;-74
2022/06/11 10:56:32;;;;;;;20.00;5.05;;;;;;;;;;5053724;28;20105;-78
2022/06/11 10:59:17;;;;;;;19.70;6.25;;;;;;;;;;5054689;28;20554;-77
2022/06/11 11:01:48;;;;;;;21.15;4.78;;;;;;;;;;5055178;28;20086;-77
2022/06/11 11:04:14;;;;;;;16.95;4.82;;;;;;;;;;5061122;28;20021;-76
2022/06/11 11:06:41;;;;;;;16.08;3.45;;;;;;;;;;5060821;28;20028;-74
2022/06/11 11:09:10;;;;;;;20.83;5.25;;;;;;;;;;5060975;28;20103;-76
2022/06/11 11:11:47;;;;;;;23.63;4.38;;;;;;;;;;5062054;28;20046;-77
2022/06/11 11:14:16;;;;;;;19.33;4.20;;;;;;;;;;5057273;28;20025;-74
2022/06/11 11:16:47;;;;;;;15.95;3.75;;;;;;;;;;5054773;28;20025;-76
2022/06/11 11:19:17;;;;;;;21.13;4.45;;;;;;;;;;5053574;28;20029;-76
2022/06/11 11:21:49;;;;;;;23.63;4.40;;;;;;;;;;5054537;28;20021;-76
2022/06/11 11:24:21;;;;;;;20.77;4.40;;;;;;;;;;5053208;28;20125;-76
2022/06/11 11:26:49;;;;;;;23.73;4.38;;;;;;;;;;5052625;28;20226;-77
2022/06/11 11:29:22;;;;;;;17.65;3.60;;;;;;;;;;5054385;28;20104;-77
2022/06/11 11:31:57;;;;;;;20.00;4.85;;;;;;;;;;5055783;28;20017;-76
2022/06/11 11:34:30;;;;;;;23.35;8.40;;;;;;;;;;5055820;28;20095;-75
2022/06/11 11:37:20;;;;;;;17.40;4.40;;;;;;;;;;5054379;28;20048;-75
2022/06/11 11:39:53;;;;;;;18.38;4.50;;;;;;;;;;5053921;28;20025;-75
2022/06/11 11:42:22;;;;;;;19.10;3.95;;;;;;;;;;5054233;28;20052;-78
2022/06/11 11:44:57;;;;;;;22.23;4.43;;;;;;;;;;5053223;28;20494;-77
2022/06/11 11:47:37;;;;;;;21.45;4.30;;;;;;;;;;5053323;28;20021;-78
2022/06/11 11:50:07;;;;;;;25.17;4.05;;;;;;;;;;5055230;28;20041;-76
2022/06/11 11:52:39;;;;;;;15.60;3.67;;;;;;;;;;5055711;28;20176;-78
2022/06/11 11:55:28;;;;;;;28.00;4.57;;;;;;;;;;5054759;28;20032;-79
2022/06/11 11:57:56;;;;;;;23.88;4.93;;;;;;;;;;5047393;28;20033;-77
2022/06/11 12:00:25;;;;;;;26.88;4.40;;;;;;;;;;5054495;28;20025;-78
2022/06/11 12:02:54;;;;;;;20.25;4.40;;;;;;;;;;5055619;28;20076;-76
2022/06/11 12:05:28;;;;;;;18.85;4.45;;;;;;;;;;5054171;28;20029;-81
2022/06/11 12:07:55;;;;;;;21.42;4.90;;;;;;;;;;5054837;28;20025;-78
2022/06/11 12:10:26;;;;;;;19.75;4.13;;;;;;;;;;5053791;28;20095;-75
2022/06/11 12:12:53;;;;;;;19.52;4.35;;;;;;;;;;5054124;28;20032;-76
2022/06/11 12:15:24;;;;;;;19.85;4.00;;;;;;;;;;5054416;28;20025;-75
2022/06/11 12:17:52;;;;;;;20.05;4.30;;;;;;;;;;5054068;28;20029;-75
2022/06/11 12:20:24;;;;;;;21.38;5.60;;;;;;;;;;5054535;28;20109;-75
2022/06/11 12:22:53;;;;;;;26.75;5.30;;;;;;;;;;5054681;28;20133;-77
2022/06/11 12:25:35;;;;;;;28.30;5.10;;;;;;;;;;5053741;28;20033;-77
2022/06/11 12:28:01;;;;;;;17.23;4.90;;;;;;;;;;5054663;28;20044;-78
2022/06/11 12:30:28;;;;;;;25.95;4.80;;;;;;;;;;5061939;28;20084;-75
2022/06/11 12:32:55;;;;;;;20.10;4.00;;;;;;;;;;5055792;28;20025;-75
2022/06/11 12:35:28;;;;;;;15.93;3.90;;;;;;;;;;5053846;28;20025;-76
2022/06/11 12:37:56;;;;;;;24.83;5.45;;;;;;;;;;5059056;28;20475;-77
2022/06/11 12:40:25;;;;;;;27.90;5.32;;;;;;;;;;5066068;28;20031;-77
2022/06/11 12:43:03;;;;;;;22.55;4.97;;;;;;;;;;5064732;28;20033;-80
2022/06/11 12:45:47;;;;;;;23.50;4.43;;;;;;;;;;5060323;28;20025;-75
2022/06/11 12:48:32;;;;;;;22.90;4.68;;;;;;;;;;5057534;28;20055;-75
2022/06/11 12:51:01;;;;;;;33.15;6.57;;;;;;;;;;5057253;28;20071;-77
2022/06/11 12:53:50;;;;;;;27.73;5.10;;;;;;;;;;5055142;28;20036;-77
2022/06/11 12:56:32;;;;;;;32.20;4.70;;;;;;;;;;5048304;28;20479;-76
2022/06/11 12:59:13;;;;;;;28.67;5.40;;;;;;;;;;5056033;28;20035;-76
2022/06/11 13:01:46;;;;;;;18.90;4.38;;;;;;;;;;5057395;28;20088;-76
2022/06/11 13:04:24;;;;;;;21.17;4.40;;;;;;;;;;5053951;28;20367;-76
2022/06/11 13:07:09;;;;;;;21.30;4.18;;;;;;;;;;5053332;28;20017;-77
2022/06/11 13:09:35;;;;;;;;;;;;;;;;;;5053277;28;20032;-76
2022/06/11 13:12:01;;;;;;;24.70;5.38;;;;;;;;;;5054063;28;19905;-77
2022/06/11 13:14:50;;;;;;;27.40;6.07;;;;;;;;;;5054321;28;20041;-76
2022/06/11 13:17:31;;;;;;;38.65;12.95;;;;;;;;;;5056885;28;20033;-77
2022/06/11 13:20:02;;;;;;;25.92;5.03;;;;;;;;;;5060076;28;20048;-77
2022/06/11 13:22:40;;;;;;;30.27;8.27;;;;;;;;;;5060909;28;20029;-76
2022/06/11 13:25:12;;;;;;;24.90;5.75;;;;;;;;;;5062497;28;20029;-77
2022/06/11 13:27:51;;;;;;;22.58;4.68;;;;;;;;;;5066184;28;20104;-77
2022/06/11 13:30:17;;;;;;;23.83;5.30;;;;;;;;;;5062828;28;20036;-76
2022/06/11 13:32:48;;;;;;;19.38;4.30;;;;;;;;;;5059077;28;20029;-76
2022/06/11 13:35:29;;;;;;;20.55;4.18;;;;;;;;;;5054106;28;20036;-76
2022/06/11 13:37:58;;;;;;;28.40;5.68;;;;;;;;;;5054035;28;20113;-77
2022/06/11 13:40:41;;;;;;;21.55;5.07;;;;;;;;;;5053676;28;20086;-76
2022/06/11 13:43:19;;;;;;;28.60;4.97;;;;;;;;;;5053611;28;20037;-77
2022/06/11 13:45:48;;;;;;;29.52;4.38;;;;;;;;;;5052495;28;20025;-77
2022/06/11 13:48:17;;;;;;;24.67;5.18;;;;;;;;;;5054275;28;20029;-78
2022/06/11 13:50:45;;;;;;;25.40;4.57;;;;;;;;;;5054902;28;20084;-79
2022/06/11 13:56:23;;;;;;;17.45;4.05;;;;;;;;;;5056469;28;20460;-77
2022/06/11 13:59:04;;;;;;;21.45;4.90;;;;;;;;;;5056871;28;20072;-77
2022/06/11 14:01:31;;;;;;;20.45;4.57;;;;;;;;;;5054639;28;20041;-76
2022/06/11 14:03:57;;;;;;;23.58;4.43;;;;;;;;;;5055144;28;20029;-77
2022/06/11 14:06:23;;;;;;;29.33;5.38;;;;;;;;;;5053954;28;20047;-77
2022/06/11 14:09:05;;;;;;;26.33;5.28;;;;;;;;;;5053100;28;20060;-76
2022/06/11 14:11:38;;;;;;;26.48;5.05;;;;;;;;;;5055195;28;20037;-77
2022/06/11 14:14:06;;;;;;;25.35;5.10;;;;;;;;;;5057976;28;20040;-76
2022/06/11 14:16:31;;;;;;;28.25;5.03;;;;;;;;;;5073395;22;20328;-73
2022/06/11 14:19:18;;;;;;;25.58;4.80;;;;;;;;;;5053660;28;20040;-72
2022/06/11 14:21:54;;;;;;;27.17;5.03;;;;;;;;;;5044658;28;20048;-72
2022/06/11 14:24:38;;;;;;;26.63;5.45;;;;;;;;;;5054926;28;20033;-72
2022/06/11 14:27:24;;;;;;;30.42;5.05;;;;;;;;;;5055581;28;20040;-72
2022/06/11 14:30:02;;;;;;;23.23;4.60;;;;;;;;;;5055982;28;20037;-72
2022/06/11 14:32:29;;;;;;;27.38;5.30;;;;;;;;;;5055813;28;20466;-72
2022/06/11 14:35:00;;;;;;;22.05;5.18;;;;;;;;;;5054050;28;20111;-73
2022/06/11 14:37:28;;;;;;;24.45;4.90;;;;;;;;;;5060179;28;20055;-73
2022/06/11 14:40:12;;;;;;;19.73;4.05;;;;;;;;;;5061460;28;20029;-72
2022/06/11 14:42:57;;;;;;;26.67;4.80;;;;;;;;;;5065059;28;20025;-71
2022/06/11 14:45:38;;;;;;;29.27;5.20;;;;;;;;;;5053578;28;20029;-71
2022/06/11 14:48:08;;;;;;;22.80;5.10;;;;;;;;;;5056609;28;20047;-71
2022/06/11 14:50:57;;;;;;;29.23;5.00;;;;;;;;;;5054643;28;20033;-73
2022/06/11 14:53:36;;;;;;;25.13;5.32;;;;;;;;;;5056137;28;20029;-72
2022/06/11 14:56:14;;;;;;;29.13;4.78;;;;;;;;;;5035243;28;20026;-72
2022/06/11 14:58:40;;;;;;;30.55;5.43;;;;;;;;;;5035049;28;20021;-72
2022/06/11 15:01:06;;;;;;;25.20;5.47;;;;;;;;;;5034594;28;20411;-72